This is the latest recevied weather packets stored in our database for station/object W1HS. If no packets are shown the sender has not sent any weather packets the latest 10 day(s).
| Time | Temp. | Humidity | Pressure | Rain* | Wind** | Luminosity | Snow |
|---|---|---|---|---|---|---|---|
| 1777487659 | 18.89° C | 45% | 993.3 hPa | 0 mm | - | 450 W/m² | - |
| 1777487060 | 18.89° C | 46% | 993.2 hPa | 0 mm | - | 823 W/m² | - |
| 1777479020 | 16.67° C | 52% | 994.5 hPa | 0 mm | - | 932 W/m² | - |
| 1777477820 | 16.11° C | 52% | 994.5 hPa | 0 mm | - | 907 W/m² | - |
| 1777468219 | 8.89° C | 76% | 997 hPa | 0 mm | - | 302 W/m² | - |
| 1777465219 | 8.89° C | 76% | 997.4 hPa | 0 mm | - | 526 W/m² | - |
| 1777462219 | 6.11° C | 86% | 997.9 hPa | 0 mm | - | 149 W/m² | - |
| 1777461619 | 5.56° C | 88% | 997.9 hPa | 0 mm | - | 125 W/m² | - |
| 1777459819 | 4.44° C | 89% | 997.8 hPa | 0 mm | - | 78 W/m² | - |
| 1777458619 | 3.89° C | 89% | 997.7 hPa | 0 mm | - | 58 W/m² | - |
| 1777458019 | 3.89° C | 89% | 997.9 hPa | 0 mm | - | 49 W/m² | - |
| 1777457419 | 3.89° C | 88% | 997.8 hPa | 0 mm | - | 30 W/m² | - |
| 1777456819 | 3.89° C | 88% | 997.6 hPa | 0 mm | - | 14 W/m² | - |
| 1777455621 | 3.89° C | 87% | 997.4 hPa | 0 mm | - | 0 W/m² | - |
| 1777455019 | 3.89° C | 85% | 997.2 hPa | 0 mm | - | 0 W/m² | - |
| 1777454419 | 3.89° C | 84% | 997.1 hPa | 0 mm | - | 0 W/m² | - |
| 1777453819 | 3.89° C | 84% | 997.3 hPa | 0 mm | - | 0 W/m² | - |
| 1777453218 | 3.89° C | 83% | 997.3 hPa | 0 mm | - | 0 W/m² | - |
| 1777452018 | 3.89° C | 82% | 997.5 hPa | 0 mm | - | 0 W/m² | - |
| 1777451419 | 3.89° C | 82% | 997.7 hPa | 0 mm | - | 0 W/m² | - |
| 1777450818 | 3.89° C | 82% | 997.4 hPa | 0 mm | - | 0 W/m² | - |
| 1777450218 | 3.89° C | 81% | 997.4 hPa | 0 mm | - | 0 W/m² | - |
| 1777449618 | 4.44° C | 81% | 997.4 hPa | 0 mm | - | 0 W/m² | - |
| 1777449019 | 4.44° C | 81% | 997.5 hPa | 0 mm | - | 0 W/m² | - |
| 1777448418 | 4.44° C | 80% | 997.7 hPa | 0 mm | - | 0 W/m² | - |
* Rain latest hour (hover to see other rain measurements)
** Current wind speed in m/s (hover to see current wind gust speed)